Time;durP1;ratioP1;P1;durP2;ratioP2;P2;SDS_P1;SDS_P2;PMS_P1;PMS_P2;Temp;Humidity;BMP_temperature;BMP_pressure;BME280_temperature;BME280_humidity;BME280_pressure;Samples;Min_cycle;Max_cycle;Signal;HPM_P1;HPM_P2
2022/07/01 00:00:45;;;;;;;15.93;13.15;;;;;;;13.82;100.00;101421.63;5117891;28;20097;-62
2022/07/01 00:03:11;;;;;;;16.17;13.07;;;;;;;13.78;100.00;101427.81;5117214;28;20039;-61
2022/07/01 00:05:36;;;;;;;17.52;12.98;;;;;;;13.74;100.00;101425.25;5117702;28;20100;-63
2022/07/01 00:08:01;;;;;;;18.20;13.43;;;;;;;13.71;100.00;101414.78;5117800;28;20031;-61
2022/07/01 00:10:27;;;;;;;18.45;14.32;;;;;;;13.72;100.00;101417.38;5117737;28;20114;-62
2022/07/01 00:12:52;;;;;;;18.88;13.60;;;;;;;13.63;100.00;101404.41;5117603;28;20042;-62
2022/07/01 00:15:17;;;;;;;16.67;13.05;;;;;;;13.70;100.00;101402.53;5117742;28;20042;-60
2022/07/01 00:17:43;;;;;;;18.80;13.45;;;;;;;13.60;100.00;101393.94;5117024;28;20055;-61
2022/07/01 00:20:09;;;;;;;18.60;14.35;;;;;;;13.61;100.00;101411.44;5117561;28;20077;-62
2022/07/01 00:22:35;;;;;;;18.48;13.43;;;;;;;13.60;100.00;101404.47;5116490;28;20042;-61
2022/07/01 00:25:01;;;;;;;21.27;14.73;;;;;;;13.65;100.00;101400.00;5117283;28;20035;-61
2022/07/01 00:27:26;;;;;;;21.02;14.38;;;;;;;13.72;100.00;101401.59;5116941;28;20039;-60
2022/07/01 00:29:51;;;;;;;20.40;13.93;;;;;;;13.69;100.00;101388.50;5116910;28;20039;-60
2022/07/01 00:32:17;;;;;;;20.77;14.30;;;;;;;13.64;100.00;101387.75;5116979;28;20431;-60
2022/07/01 00:34:43;;;;;;;18.77;13.70;;;;;;;13.74;100.00;101393.69;5117131;28;20039;-60
2022/07/01 00:37:08;;;;;;;17.65;13.50;;;;;;;13.73;100.00;101379.66;5117035;28;20035;-60
2022/07/01 00:39:35;;;;;;;20.70;13.77;;;;;;;13.69;100.00;101367.47;5116864;28;20111;-60
2022/07/01 00:42:03;;;;;;;21.00;14.43;;;;;;;13.76;100.00;101379.63;5116969;28;20027;-61
2022/07/01 00:44:29;;;;;;;19.23;13.15;;;;;;;13.81;100.00;101376.91;5116502;28;20358;-61
2022/07/01 00:46:54;;;;;;;20.25;14.43;;;;;;;13.64;100.00;101373.72;5116678;28;20030;-62
2022/07/01 00:49:19;;;;;;;20.55;14.10;;;;;;;13.56;100.00;101365.94;5116755;28;20102;-60
2022/07/01 00:51:45;;;;;;;19.52;13.95;;;;;;;13.57;100.00;101365.91;5116440;28;20503;-60
2022/07/01 00:54:12;;;;;;;19.42;14.07;;;;;;;13.61;100.00;101382.53;5116805;28;20330;-59
2022/07/01 00:56:37;;;;;;;21.25;14.18;;;;;;;13.62;100.00;101379.00;5116248;28;20449;-60
2022/07/01 00:59:03;;;;;;;20.13;14.02;;;;;;;13.59;100.00;101387.81;5116483;28;20031;-61
2022/07/01 01:01:28;;;;;;;21.55;14.55;;;;;;;13.50;100.00;101379.22;5116756;28;20043;-61
2022/07/01 01:03:54;;;;;;;19.60;13.88;;;;;;;13.58;100.00;101387.81;5116691;28;20016;-60
2022/07/01 01:06:19;;;;;;;19.77;13.93;;;;;;;13.57;100.00;101400.09;5115785;28;20438;-60
2022/07/01 01:08:46;;;;;;;20.48;14.50;;;;;;;13.73;100.00;101402.47;5116370;28;20036;-60
2022/07/01 01:11:11;;;;;;;20.05;14.50;;;;;;;13.66;100.00;101406.13;5116638;28;20042;-60
2022/07/01 01:13:37;;;;;;;20.65;15.02;;;;;;;13.69;100.00;101406.03;5116369;28;20028;-60
2022/07/01 01:16:02;;;;;;;22.63;14.63;;;;;;;13.70;100.00;101411.28;5114976;28;20062;-59
2022/07/01 01:18:27;;;;;;;21.98;15.07;;;;;;;13.63;100.00;101420.19;5116377;28;20031;-61
2022/07/01 01:20:54;;;;;;;22.83;15.30;;;;;;;13.60;100.00;101422.88;5116090;28;20407;-60
2022/07/01 01:23:19;;;;;;;23.30;15.10;;;;;;;13.68;100.00;101428.84;5116177;28;20042;-59
2022/07/01 01:25:47;;;;;;;24.33;15.32;;;;;;;13.73;100.00;101434.91;5115827;28;20023;-60
2022/07/01 01:28:12;;;;;;;24.17;15.95;;;;;;;13.75;100.00;101437.50;5115978;28;20036;-62
2022/07/01 01:30:38;;;;;;;24.35;16.23;;;;;;;13.75;100.00;101435.75;5116072;28;20054;-60
2022/07/01 01:33:03;;;;;;;23.70;15.75;;;;;;;13.78;100.00;101437.47;5115915;28;20449;-60
2022/07/01 01:35:28;;;;;;;21.88;14.88;;;;;;;13.80;100.00;101430.41;5115173;28;20061;-61
2022/07/01 01:37:54;;;;;;;23.20;15.25;;;;;;;13.82;100.00;101432.13;5115941;28;20140;-59
2022/07/01 01:40:20;;;;;;;24.83;16.65;;;;;;;13.81;100.00;101433.03;5115888;28;20031;-60
2022/07/01 01:42:46;;;;;;;23.73;16.30;;;;;;;13.77;100.00;101427.84;5115798;28;20039;-61
2022/07/01 01:45:12;;;;;;;25.85;17.27;;;;;;;13.77;100.00;101419.94;5115416;28;20031;-60
2022/07/01 01:47:38;;;;;;;25.17;17.10;;;;;;;13.81;100.00;101427.75;5115720;28;20035;-62
2022/07/01 01:50:05;;;;;;;26.30;17.10;;;;;;;13.86;100.00;101425.03;5115810;28;20023;-60
2022/07/01 01:52:31;;;;;;;27.13;17.38;;;;;;;13.85;100.00;101423.31;5115667;28;20107;-62
2022/07/01 01:54:56;;;;;;;28.65;17.67;;;;;;;13.85;100.00;101434.69;5115616;28;20075;-59
2022/07/01 01:57:22;;;;;;;27.50;17.52;;;;;;;13.75;100.00;101429.63;5115506;28;20074;-60
2022/07/01 01:59:47;;;;;;;28.10;17.88;;;;;;;13.78;100.00;101419.91;5115577;28;20080;-62
2022/07/01 02:02:12;;;;;;;27.20;17.80;;;;;;;13.81;100.00;101424.25;5115688;28;20027;-61
2022/07/01 02:04:37;;;;;;;29.80;17.80;;;;;;;13.76;100.00;101423.47;5115176;28;20118;-60
2022/07/01 02:07:04;;;;;;;28.73;18.55;;;;;;;13.77;100.00;101430.47;5114905;28;20036;-61
2022/07/01 02:09:30;;;;;;;27.25;18.35;;;;;;;13.71;100.00;101434.06;5115571;28;20028;-60
2022/07/01 02:11:55;;;;;;;28.23;18.40;;;;;;;13.71;100.00;101441.09;5114941;28;20030;-61
2022/07/01 02:14:21;;;;;;;27.70;18.65;;;;;;;13.64;100.00;101442.09;5115287;28;20031;-60
2022/07/01 02:16:46;;;;;;;28.08;17.73;;;;;;;13.63;100.00;101419.31;5115185;28;20027;-62
2022/07/01 02:19:11;;;;;;;29.00;18.65;;;;;;;13.84;100.00;101458.41;5115064;28;20092;-61
2022/07/01 02:21:36;;;;;;;27.02;18.13;;;;;;;13.72;100.00;101454.22;5115079;28;20035;-61
2022/07/01 02:24:02;;;;;;;29.90;18.77;;;;;;;13.78;100.00;101461.16;5115149;28;20066;-61
2022/07/01 02:26:27;;;;;;;28.38;18.00;;;;;;;13.79;100.00;101474.28;5114933;28;20316;-60
2022/07/01 02:28:52;;;;;;;30.95;18.83;;;;;;;13.76;100.00;101478.72;5115135;28;20406;-59
2022/07/01 02:31:18;;;;;;;30.00;18.33;;;;;;;13.78;100.00;101476.94;5115123;28;20044;-61
2022/07/01 02:33:43;;;;;;;28.63;19.13;;;;;;;13.72;100.00;101445.44;5115253;28;20060;-61
2022/07/01 02:36:08;;;;;;;29.75;18.40;;;;;;;13.71;100.00;101425.31;5114988;28;20035;-58
2022/07/01 02:38:34;;;;;;;27.98;17.83;;;;;;;13.74;100.00;101426.13;5114899;28;20368;-60
2022/07/01 02:41:00;;;;;;;25.90;17.05;;;;;;;13.70;100.00;101434.94;5115367;28;20035;-61
2022/07/01 02:43:25;;;;;;;27.85;17.10;;;;;;;13.77;100.00;101447.13;5114614;28;20369;-61
2022/07/01 02:45:50;;;;;;;26.20;17.65;;;;;;;13.51;100.00;101415.97;5114939;28;20027;-61
2022/07/01 02:48:16;;;;;;;28.35;17.83;;;;;;;13.71;100.00;101451.59;5115169;28;20544;-60
2022/07/01 02:50:41;;;;;;;30.65;16.92;;;;;;;13.58;100.00;101451.81;5114568;28;20046;-61
2022/07/01 02:53:06;;;;;;;28.05;17.48;;;;;;;13.62;100.00;101459.66;5115420;28;20027;-60
2022/07/01 02:55:32;;;;;;;31.90;17.98;;;;;;;13.55;100.00;101462.38;5114816;28;20027;-61
2022/07/01 02:57:57;;;;;;;28.70;18.58;;;;;;;13.62;100.00;101464.91;5114423;28;20442;-60
2022/07/01 03:00:23;;;;;;;30.70;19.10;;;;;;;13.65;100.00;101472.75;5114867;28;20063;-60
2022/07/01 03:02:49;;;;;;;29.67;18.13;;;;;;;13.62;100.00;101465.78;5114706;28;20031;-59
2022/07/01 03:05:15;;;;;;;33.88;19.95;;;;;;;13.60;100.00;101457.06;5114868;28;20032;-60
2022/07/01 03:07:41;;;;;;;32.60;19.60;;;;;;;13.53;100.00;101463.28;5114822;28;20039;-60
2022/07/01 03:10:08;;;;;;;32.10;19.38;;;;;;;13.55;100.00;101470.25;5114357;28;20020;-59
2022/07/01 03:12:34;;;;;;;31.73;21.05;;;;;;;13.53;100.00;101455.41;5114831;28;20027;-61
2022/07/01 03:15:02;;;;;;;37.90;22.48;;;;;;;13.50;100.00;101468.63;5114825;28;20027;-60
2022/07/01 03:17:30;;;;;;;33.75;21.80;;;;;;;13.56;100.00;101466.75;5114825;28;20027;-58
2022/07/01 03:19:55;;;;;;;35.17;22.52;;;;;;;13.57;100.00;101465.84;5114319;28;20041;-61
2022/07/01 03:22:22;;;;;;;38.70;23.13;;;;;;;13.61;100.00;101463.19;5114667;28;20031;-61
2022/07/01 03:24:48;;;;;;;34.97;22.00;;;;;;;13.58;100.00;101449.19;5114560;28;20031;-60
2022/07/01 03:27:14;;;;;;;32.72;21.65;;;;;;;13.49;100.00;101467.75;5114580;28;20039;-61
2022/07/01 03:29:40;;;;;;;37.00;22.77;;;;;;;13.45;100.00;101457.28;5114289;28;20439;-62
2022/07/01 03:32:05;;;;;;;36.55;22.35;;;;;;;13.52;100.00;101465.03;5114217;28;20036;-60
2022/07/01 03:34:31;;;;;;;37.08;23.65;;;;;;;13.46;100.00;101470.41;5114177;28;20024;-62
2022/07/01 03:36:56;;;;;;;36.55;22.95;;;;;;;13.53;100.00;101474.66;5114272;28;20475;-60
2022/07/01 03:39:21;;;;;;;38.30;23.00;;;;;;;13.43;100.00;101501.16;5116897;28;20031;-59
2022/07/01 03:41:47;;;;;;;36.15;23.30;;;;;;;13.45;100.00;101496.72;5118213;28;20379;-61
2022/07/01 03:44:12;;;;;;;37.88;23.27;;;;;;;13.39;100.00;101488.94;5118142;28;20114;-54
2022/07/01 03:46:37;;;;;;;40.28;23.73;;;;;;;13.44;100.00;101505.50;5117610;28;20028;-61
2022/07/01 03:49:04;;;;;;;37.22;24.10;;;;;;;13.42;100.00;101509.91;5117889;28;20027;-59
2022/07/01 03:51:29;;;;;;;37.42;22.95;;;;;;;13.41;100.00;101511.69;5118013;28;20020;-60
2022/07/01 03:56:38;;;;;;;40.25;22.98;;;;;;;13.16;100.00;101481.38;5117553;28;20046;-61
2022/07/01 03:59:03;;;;;;;34.20;23.95;;;;;;;13.44;100.00;101523.91;5117932;28;20036;-60
2022/07/01 04:01:29;;;;;;;38.55;24.25;;;;;;;13.45;100.00;101521.28;5117585;28;20028;-61
2022/07/01 04:03:54;;;;;;;36.78;24.65;;;;;;;13.52;100.00;101535.16;5117324;28;20036;-60
2022/07/01 04:06:20;;;;;;;40.75;25.10;;;;;;;13.51;100.00;101533.44;5117174;28;20073;-60
2022/07/01 04:08:47;;;;;;;44.67;26.52;;;;;;;13.58;100.00;101535.09;5117449;28;20031;-59
2022/07/01 04:11:13;;;;;;;41.20;26.20;;;;;;;13.57;100.00;101534.22;5117189;28;20111;-60
2022/07/01 04:13:39;;;;;;;43.42;27.75;;;;;;;13.61;100.00;101532.44;5117351;28;20028;-59
2022/07/01 04:16:05;;;;;;;45.58;28.92;;;;;;;13.55;100.00;101519.34;5116875;28;20043;-61
2022/07/01 04:18:31;;;;;;;45.28;27.67;;;;;;;13.46;100.00;101525.63;5117203;28;20083;-60
2022/07/01 04:23:41;;;;;;;39.92;24.73;;;;;;;13.29;100.00;101495.22;5117613;28;20045;-59
2022/07/01 04:26:06;;;;;;;35.88;23.52;;;;;;;13.43;100.00;101523.03;5114158;28;20036;-59
2022/07/01 04:28:32;;;;;;;37.40;22.55;;;;;;;13.41;100.00;101522.19;5117225;28;20040;-59
2022/07/01 04:30:57;;;;;;;33.50;20.50;;;;;;;13.21;100.00;101504.06;5116984;28;20465;-58
2022/07/01 04:33:22;;;;;;;31.77;20.48;;;;;;;13.36;100.00;101521.38;5117068;28;20434;-59
2022/07/01 04:35:48;;;;;;;29.27;19.15;;;;;;;13.38;100.00;101524.84;5116938;28;20340;-59
2022/07/01 04:38:13;;;;;;;30.38;18.85;;;;;;;13.33;100.00;101533.72;5116928;28;20107;-59
2022/07/01 04:40:38;;;;;;;31.17;18.52;;;;;;;13.26;100.00;101519.78;5117019;28;20030;-60
2022/07/01 04:43:03;;;;;;;29.35;18.65;;;;;;;13.33;100.00;101537.22;5116854;28;20419;-60
2022/07/01 04:45:29;;;;;;;26.05;16.38;;;;;;;13.32;100.00;101543.38;5116675;28;20027;-60
2022/07/01 04:47:54;;;;;;;27.38;17.65;;;;;;;13.39;100.00;101538.88;5116625;28;20361;-59
2022/07/01 04:50:19;;;;;;;27.38;17.02;;;;;;;13.43;100.00;101537.94;5116712;28;20156;-61
2022/07/01 04:52:45;;;;;;;30.05;17.35;;;;;;;13.45;100.00;101533.53;5116952;28;20028;-59
2022/07/01 04:55:10;;;;;;;24.15;16.25;;;;;;;13.45;100.00;101541.44;5116886;28;20038;-60
2022/07/01 04:57:35;;;;;;;26.30;16.63;;;;;;;13.49;100.00;101538.75;5108004;28;20122;-59
2022/07/01 05:00:01;;;;;;;23.92;16.30;;;;;;;13.62;100.00;101534.16;5095837;28;20032;-59
2022/07/01 05:02:27;;;;;;;26.75;16.52;;;;;;;13.66;100.00;101527.09;5115627;28;20055;-60
2022/07/01 05:04:52;;;;;;;24.60;15.48;;;;;;;13.63;100.00;101529.78;5110456;28;20466;-58
2022/07/01 05:07:29;;;;;;;22.13;15.52;;;;;;;13.65;100.00;101542.03;5096232;28;20031;-60
2022/07/01 05:09:56;;;;;;;25.02;15.52;;;;;;;13.71;100.00;101544.53;5111406;28;20031;-60
2022/07/01 05:12:21;;;;;;;23.65;15.43;;;;;;;13.76;100.00;101547.97;5116797;28;20042;-59
2022/07/01 05:14:47;;;;;;;21.50;15.25;;;;;;;13.90;100.00;101553.88;5106182;28;20059;-59
2022/07/01 05:17:13;;;;;;;21.05;13.75;;;;;;;13.99;100.00;101559.91;5114047;28;20027;-59
2022/07/01 05:22:23;;;;;;;20.30;13.55;;;;;;;14.10;100.00;101550.94;5116735;28;20147;-61
2022/07/01 05:24:48;;;;;;;19.90;13.50;;;;;;;14.19;100.00;101545.53;5116391;28;20028;-61
2022/07/01 05:27:13;;;;;;;21.58;12.77;;;;;;;14.19;100.00;101548.16;5115803;28;20335;-62
2022/07/01 05:29:38;;;;;;;20.90;13.10;;;;;;;14.24;100.00;101556.84;5116532;28;20032;-59
2022/07/01 05:32:04;;;;;;;16.33;11.75;;;;;;;14.19;100.00;101550.81;5116122;28;20453;-61
2022/07/01 05:34:29;;;;;;;18.50;12.25;;;;;;;14.15;100.00;101549.09;5115994;28;20420;-59
2022/07/01 05:36:55;;;;;;;19.63;12.70;;;;;;;14.20;100.00;101551.63;5116366;28;20106;-61
2022/07/01 05:39:20;;;;;;;18.15;12.65;;;;;;;14.16;100.00;101550.84;5116241;28;20032;-60
2022/07/01 05:41:45;;;;;;;18.52;12.50;;;;;;;14.21;100.00;101548.09;5115986;28;20023;-61
2022/07/01 05:44:11;;;;;;;20.27;12.85;;;;;;;14.16;100.00;101540.31;5116081;28;20035;-60
2022/07/01 05:46:36;;;;;;;17.42;12.77;;;;;;;14.17;100.00;101549.94;5115751;28;20031;-61
2022/07/01 05:49:02;;;;;;;18.88;13.60;;;;;;;14.09;100.00;101553.59;5115944;28;20035;-60
2022/07/01 05:51:27;;;;;;;20.10;13.15;;;;;;;14.01;100.00;101548.47;5116070;28;20032;-61
2022/07/01 05:53:53;;;;;;;20.05;14.00;;;;;;;14.00;100.00;101559.88;5115880;28;20023;-61
2022/07/01 05:56:20;;;;;;;18.58;13.30;;;;;;;14.03;100.00;101562.44;5115110;28;20080;-60
2022/07/01 05:58:45;;;;;;;23.17;14.15;;;;;;;14.13;100.00;101558.78;5115563;28;20365;-61
2022/07/01 06:01:11;;;;;;;20.25;13.90;;;;;;;14.61;100.00;101554.44;5114359;28;20032;-54
2022/07/01 06:03:36;;;;;;;20.45;13.90;;;;;;;15.36;100.00;101517.78;5114842;28;20060;-61
2022/07/01 06:06:02;;;;;;;20.92;13.60;;;;;;;15.62;95.84;101544.47;5115282;28;20047;-59
2022/07/01 06:08:27;;;;;;;16.17;12.57;;;;;;;15.47;96.39;101543.00;5115751;28;20423;-61
2022/07/01 06:10:52;;;;;;;18.77;13.15;;;;;;;15.25;98.25;101549.63;5115116;28;20074;-61
2022/07/01 06:13:18;;;;;;;18.45;12.27;;;;;;;15.05;99.22;101557.13;5115408;28;20453;-61
2022/07/01 06:15:43;;;;;;;16.33;12.65;;;;;;;14.88;97.39;101549.56;5115138;28;20088;-61
2022/07/01 06:18:09;;;;;;;20.80;12.45;;;;;;;14.64;99.59;101564.06;5115482;28;20423;-60
2022/07/01 06:20:34;;;;;;;19.25;12.45;;;;;;;14.56;100.00;101561.56;5115356;28;20074;-61
2022/07/01 06:22:59;;;;;;;17.20;12.10;;;;;;;14.55;100.00;101557.19;5115582;28;20052;-60
2022/07/01 06:25:24;;;;;;;19.13;13.00;;;;;;;14.54;100.00;101557.25;5115174;28;20019;-60
2022/07/01 06:27:50;;;;;;;18.40;12.45;;;;;;;14.52;100.00;101554.63;5115048;28;20063;-61
2022/07/01 06:30:15;;;;;;;18.73;12.43;;;;;;;14.51;100.00;101550.25;5114904;28;20439;-62
2022/07/01 06:32:40;;;;;;;17.17;11.68;;;;;;;14.52;100.00;101553.75;5115191;28;20023;-61
2022/07/01 06:35:07;;;;;;;17.17;11.55;;;;;;;14.43;98.42;101553.91;5112515;28;20043;-61
2022/07/01 06:37:33;;;;;;;18.60;11.23;;;;;;;14.29;100.00;101547.09;5100405;28;20055;-62
2022/07/01 06:40:00;;;;;;;16.05;11.60;;;;;;;14.28;100.00;101549.75;5114556;28;20031;-63
2022/07/01 06:42:25;;;;;;;17.52;11.10;;;;;;;14.34;100.00;101554.06;5115036;28;20027;-62
2022/07/01 06:44:50;;;;;;;15.98;11.02;;;;;;;14.31;100.00;101549.72;5114533;28;20039;-61
2022/07/01 06:47:16;;;;;;;16.02;10.98;;;;;;;14.33;100.00;101553.19;5114660;28;20027;-62
2022/07/01 06:49:41;;;;;;;15.48;10.40;;;;;;;14.36;100.00;101552.28;5115268;28;20027;-63
2022/07/01 06:52:06;;;;;;;16.08;10.52;;;;;;;14.38;100.00;101537.28;5114519;28;20023;-62
2022/07/01 06:54:32;;;;;;;17.98;9.82;;;;;;;14.28;98.57;101526.06;5114779;28;20035;-63
2022/07/01 06:56:57;;;;;;;15.82;10.55;;;;;;;14.42;98.77;101549.53;5114983;28;20028;-61
2022/07/01 06:59:22;;;;;;;16.50;10.05;;;;;;;14.53;100.00;101547.59;5114807;28;20350;-63
2022/07/01 07:01:49;;;;;;;13.88;9.38;;;;;;;14.68;99.32;101547.31;5115100;28;20379;-62
2022/07/01 07:04:15;;;;;;;12.10;8.60;;;;;;;14.60;97.27;101521.09;5114393;28;20035;-60
2022/07/01 07:06:40;;;;;;;14.85;8.85;;;;;;;14.68;97.85;101554.34;5114323;28;20580;-62
2022/07/01 07:09:05;;;;;;;14.40;8.40;;;;;;;14.73;97.72;101553.34;5114551;28;20027;-62
2022/07/01 07:11:31;;;;;;;16.83;8.35;;;;;;;14.80;95.87;101565.50;5114490;28;20114;-61
2022/07/01 07:13:56;;;;;;;11.50;6.97;;;;;;;14.91;97.40;101574.06;5116617;28;20120;-61
2022/07/01 07:16:21;;;;;;;10.52;5.82;;;;;;;15.03;96.75;101582.66;5118610;28;20027;-64
2022/07/01 07:18:48;;;;;;;8.07;5.93;;;;;;;15.00;96.71;101596.75;5118796;28;20115;-63
2022/07/01 07:21:13;;;;;;;9.30;4.53;;;;;;;14.90;92.10;101590.78;5118710;28;20043;-60
2022/07/01 07:23:38;;;;;;;10.02;3.75;;;;;;;14.90;91.58;101584.63;5118598;28;20028;-60
2022/07/01 07:26:04;;;;;;;7.55;3.70;;;;;;;14.94;92.17;101568.72;5118429;28;20438;-60
2022/07/01 07:28:29;;;;;;;7.38;4.30;;;;;;;15.01;91.70;101579.16;5118492;28;20534;-62
2022/07/01 07:30:54;;;;;;;9.32;3.40;;;;;;;15.11;91.13;101589.47;5118546;28;20043;-62
2022/07/01 07:33:19;;;;;;;6.50;2.90;;;;;;;15.20;87.13;101570.84;5118692;28;20039;-62
2022/07/01 07:35:45;;;;;;;9.00;3.10;;;;;;;15.15;88.64;101571.84;5118331;28;20454;-62
2022/07/01 07:38:10;;;;;;;6.90;2.70;;;;;;;15.18;88.24;101572.66;5118580;28;20034;-62
2022/07/01 07:40:35;;;;;;;7.53;3.10;;;;;;;15.18;88.52;101577.06;5117896;28;20047;-62
2022/07/01 07:43:03;;;;;;;6.88;2.60;;;;;;;15.15;86.49;101577.13;5118160;28;20358;-63
2022/07/01 07:45:28;;;;;;;5.90;2.53;;;;;;;15.22;88.06;101589.28;5118317;28;20042;-63
2022/07/01 07:47:54;;;;;;;8.82;2.65;;;;;;;15.29;88.06;101597.03;5118071;28;20423;-62
2022/07/01 07:50:21;;;;;;;4.75;2.38;;;;;;;15.38;85.33;101595.97;5117755;28;20062;-63
2022/07/01 07:52:46;;;;;;;4.75;2.05;;;;;;;15.50;83.81;101593.06;5118255;28;20036;-63
2022/07/01 07:55:11;;;;;;;5.07;2.03;;;;;;;15.55;82.14;101599.16;5117980;28;20039;-63
2022/07/01 07:57:37;;;;;;;5.70;2.00;;;;;;;15.65;81.94;101595.41;5118027;28;20455;-63
2022/07/01 08:00:07;;;;;;;4.32;1.83;;;;;;;15.55;81.47;101593.88;5117859;28;20098;-62
2022/07/01 08:02:33;;;;;;;3.10;1.33;;;;;;;15.65;77.91;101605.94;5117986;28;20046;-62
2022/07/01 08:04:58;;;;;;;3.97;1.35;;;;;;;15.65;77.46;101589.25;5117877;28;20031;-62
2022/07/01 08:07:23;;;;;;;5.10;1.48;;;;;;;15.61;76.80;101577.03;5117933;28;20379;-64
2022/07/01 08:09:49;;;;;;;3.25;1.35;;;;;;;15.71;78.44;101598.81;5117722;28;20102;-63
2022/07/01 08:12:15;;;;;;;4.95;1.50;;;;;;;15.71;77.38;101604.94;5118056;28;20039;-63
2022/07/01 08:14:41;;;;;;;4.47;1.30;;;;;;;15.76;75.05;101610.97;5117786;28;20059;-63
2022/07/01 08:17:06;;;;;;;3.40;1.00;;;;;;;15.77;71.58;101615.34;5117685;28;20051;-63
2022/07/01 08:19:31;;;;;;;3.05;1.20;;;;;;;15.68;73.89;101605.03;5117377;28;20039;-62
2022/07/01 08:21:57;;;;;;;3.78;1.20;;;;;;;15.77;73.00;101615.34;5117803;28;20028;-62
2022/07/01 08:24:22;;;;;;;3.55;1.25;;;;;;;15.76;77.05;101618.06;5117012;28;20038;-62
2022/07/01 08:26:48;;;;;;;6.10;1.50;;;;;;;15.79;77.63;101624.09;5117347;28;20028;-62
2022/07/01 08:29:13;;;;;;;3.60;1.40;;;;;;;15.88;77.49;101626.56;5117554;28;20035;-62
2022/07/01 08:31:38;;;;;;;3.95;1.70;;;;;;;15.90;78.71;101619.47;5117618;28;20043;-65
2022/07/01 08:34:04;;;;;;;4.35;1.20;;;;;;;16.10;74.58;101621.66;5117441;28;20027;-63
2022/07/01 08:36:29;;;;;;;4.05;1.15;;;;;;;16.25;75.00;101621.28;5117705;28;20045;-61
2022/07/01 08:38:55;;;;;;;4.75;1.45;;;;;;;16.35;72.71;101635.13;5117290;28;20114;-64
2022/07/01 08:41:20;;;;;;;3.85;1.10;;;;;;;16.33;69.25;101635.16;5117282;28;20035;-63
2022/07/01 08:43:46;;;;;;;5.57;1.45;;;;;;;16.27;70.83;101642.38;5116903;28;20028;-63
2022/07/01 08:46:12;;;;;;;3.75;1.42;;;;;;;16.21;71.46;101634.59;5117158;28;20019;-63
2022/07/01 08:48:42;;;;;;;4.35;1.80;;;;;;;16.22;70.35;101639.84;5117331;28;20039;-63
2022/07/01 08:51:07;;;;;;;4.38;1.70;;;;;;;16.31;72.93;101631.66;5117297;28;20027;-62
2022/07/01 08:53:32;;;;;;;6.25;1.40;;;;;;;16.55;73.29;101646.06;5116795;28;20027;-64
2022/07/01 08:58:42;;;;;;;5.13;1.67;;;;;;;16.98;70.54;101658.16;5117045;28;20047;-62
2022/07/01 09:01:25;;;;;;;3.47;1.50;;;;;;;17.28;69.75;101661.78;5117085;28;20035;-63
2022/07/01 09:03:52;;;;;;;5.85;2.05;;;;;;;17.55;66.45;101654.81;5116779;28;20096;-65
2022/07/01 09:06:21;;;;;;;6.78;1.55;;;;;;;17.86;67.13;101654.78;5116414;28;20024;-63
2022/07/01 09:08:47;;;;;;;5.40;1.45;;;;;;;18.10;63.66;101664.63;5116675;28;20031;-64
2022/07/01 09:11:23;;;;;;;5.22;1.40;;;;;;;18.68;62.96;101665.44;5116869;28;20384;-62
2022/07/01 09:14:10;;;;;;;3.85;1.60;;;;;;;19.37;62.53;101653.25;5116958;28;20016;-63
2022/07/01 09:16:53;;;;;;;3.30;1.63;;;;;;;20.20;59.74;101651.78;5116377;28;20051;-63
2022/07/01 09:19:20;;;;;;;3.22;1.40;;;;;;;20.70;54.33;101644.41;5116837;28;20431;-62
2022/07/01 09:21:53;;;;;;;6.80;1.60;;;;;;;21.14;54.13;101647.78;5116564;28;20057;-63
2022/07/01 09:24:27;;;;;;;4.47;1.30;;;;;;;21.80;50.08;101648.31;5116558;28;20027;-62
2022/07/01 09:27:20;;;;;;;5.72;1.40;;;;;;;22.03;48.28;101654.38;5116616;28;20464;-61
2022/07/01 09:29:49;;;;;;;4.43;1.15;;;;;;;22.50;46.06;101654.72;5114658;28;20442;-61
2022/07/01 09:32:17;;;;;;;3.45;0.98;;;;;;;23.52;45.83;101652.09;5098028;28;20051;-61
2022/07/01 09:34:49;;;;;;;3.35;1.15;;;;;;;23.76;43.86;101650.72;5116414;28;20042;-62
2022/07/01 09:37:17;;;;;;;2.97;1.20;;;;;;;23.74;42.80;101659.75;5115357;28;20045;-63
2022/07/01 09:39:43;;;;;;;5.35;1.33;;;;;;;22.86;43.69;101652.00;5115876;28;20070;-62
2022/07/01 09:42:08;;;;;;;3.10;1.38;;;;;;;22.17;47.33;101659.91;5115905;28;20465;-63
2022/07/01 09:44:34;;;;;;;2.45;1.10;;;;;;;21.43;48.26;101658.97;5115848;28;20035;-61
2022/07/01 09:47:01;;;;;;;2.58;1.08;;;;;;;20.97;49.77;101660.97;5115700;28;20046;-61
2022/07/01 09:49:26;;;;;;;4.63;1.10;;;;;;;20.38;50.72;101634.25;5116511;28;20032;-63
2022/07/01 09:51:52;;;;;;;3.88;1.23;;;;;;;20.44;52.80;101665.88;5115860;28;20396;-63
2022/07/01 09:54:18;;;;;;;5.80;1.42;;;;;;;20.45;52.88;101676.47;5115391;28;20031;-62
2022/07/01 09:56:44;;;;;;;3.70;1.20;;;;;;;19.95;53.85;101673.16;5115708;28;20240;-61
2022/07/01 09:59:10;;;;;;;6.15;1.50;;;;;;;19.67;57.08;101673.34;5115913;28;20063;-61
2022/07/01 10:01:37;;;;;;;3.83;1.60;;;;;;;19.66;56.99;101676.94;5115597;28;20096;-61
2022/07/01 10:04:06;;;;;;;2.85;1.23;;;;;;;19.59;54.71;101677.22;5115995;28;20028;-62
2022/07/01 10:06:46;;;;;;;3.75;1.02;;;;;;;19.80;55.84;101679.06;5115430;28;20427;-61
2022/07/01 10:09:37;;;;;;;2.80;1.05;;;;;;;19.94;51.70;101675.88;5115320;28;20460;-63
2022/07/01 10:12:31;;;;;;;2.47;1.10;;;;;;;19.80;54.89;101682.59;5115885;28;20027;-60
2022/07/01 10:14:59;;;;;;;4.85;1.20;;;;;;;19.52;52.04;101686.34;5115525;28;20740;-60
2022/07/01 10:17:35;;;;;;;2.38;0.90;;;;;;;19.46;53.94;101690.06;5115648;28;20088;-61
2022/07/01 10:20:14;;;;;;;6.47;1.20;;;;;;;19.68;53.84;101696.34;5115523;28;20032;-62
2022/07/01 10:22:40;;;;;;;5.88;1.35;;;;;;;19.72;53.27;101703.28;5115369;28;20495;-60
2022/07/01 10:25:45;;;;;;;2.75;1.10;;;;;;;19.76;54.57;101699.56;5115050;28;20114;-61
2022/07/01 10:28:17;;;;;;;4.18;1.08;;;;;;;20.02;55.32;101698.56;5115261;28;20047;-59
2022/07/01 10:31:02;;;;;;;2.88;0.88;;;;;;;20.16;52.31;101706.00;5115399;28;20059;-62
2022/07/01 10:33:38;;;;;;;3.25;1.15;;;;;;;20.19;53.07;101702.34;5115417;28;20081;-61
2022/07/01 10:36:27;;;;;;;5.40;1.10;;;;;;;20.38;54.83;101711.38;5115946;28;20153;-61
2022/07/01 10:39:09;;;;;;;4.20;1.00;;;;;;;20.23;53.74;101707.50;5115255;28;20358;-61
2022/07/01 10:41:36;;;;;;;3.97;1.02;;;;;;;20.19;53.78;101708.53;5115299;28;20394;-61
2022/07/01 10:44:13;;;;;;;4.18;1.10;;;;;;;20.21;53.36;101711.13;5115200;28;20055;-62
2022/07/01 10:46:44;;;;;;;2.95;0.90;;;;;;;20.18;53.32;101701.47;5115517;28;20112;-61
2022/07/01 10:49:21;;;;;;;4.63;1.13;;;;;;;20.20;53.07;101702.28;5119317;28;20046;-62
2022/07/01 10:51:51;;;;;;;4.13;1.05;;;;;;;20.09;52.70;101707.16;5119195;28;20434;-62
2022/07/01 10:54:35;;;;;;;2.00;0.80;;;;;;;19.96;55.17;101672.22;5118898;28;20059;-61
2022/07/01 10:57:15;;;;;;;2.90;0.90;;;;;;;20.16;51.74;101693.56;5119418;28;20019;-61
2022/07/01 10:59:41;;;;;;;3.53;0.93;;;;;;;20.13;52.09;101687.50;5119776;28;20063;-62
2022/07/01 11:02:15;;;;;;;2.65;0.80;;;;;;;20.24;52.88;101695.94;5119538;28;20090;-61
2022/07/01 11:04:41;;;;;;;2.63;0.90;;;;;;;20.31;54.44;101688.56;5119196;28;20028;-62
2022/07/01 11:07:08;;;;;;;3.45;0.85;;;;;;;20.53;53.21;101696.56;5118722;28;20036;-61
2022/07/01 11:09:33;;;;;;;3.03;0.80;;;;;;;20.63;51.25;101690.78;5119451;28;20334;-62
2022/07/01 11:12:00;;;;;;;4.13;0.93;;;;;;;20.88;53.96;101695.97;5118941;28;20031;-62
2022/07/01 11:14:26;;;;;;;4.72;1.10;;;;;;;20.93;52.97;101674.47;5118719;28;20716;-60
2022/07/01 11:16:52;;;;;;;3.20;0.82;;;;;;;21.13;51.89;101677.97;5119024;28;20049;-61
2022/07/01 11:19:18;;;;;;;6.53;0.90;;;;;;;21.07;49.46;101672.94;5119014;28;20043;-62